Portada
METAR-TAF:

METAR-TAF

Aeroports :

Al-Arix, Egipte

latitud: 31-05N, longitud: 033-49E, altitud: 31 m

METAR: manca

Hora: 19:42 (17:42 UTC)

Pronòstic

L'informe es va fer fa 42 minuts, a les 17:00 UTC
Pronòstic vàlid del 22 a les 18 UTC al 23 a les 24 UTC
Vent 8 kt del Oest/Nord-Oest
Visibilitat 10 km o més
Núvols disperses a una alçada de 2500 ft

TAF: HEAR 221700Z 2218/2324 30008KT 9999 SCT025

Observacions i pronòstics meteorològics de més de 4000 aeroports (METAR i TAF).

Les estacions disponibles són els punts grocs i vermells al mapa.

Posi el ratolí al punt desitjat per veure el nom de l'estació.

Feu clic per veure les observacions i els pronòstics meteorològics.

Per canviar el mapa: feu clic els botons verds amb una creu de color negre per apropar; al botó verd amb un guió per allunyar la imatge; o en les fletxes verdes per a mapes adjacents.


METAR-TAF: